Time;durP1;ratioP1;P1;durP2;ratioP2;P2;SDS_P1;SDS_P2;PMS_P1;PMS_P2;Temp;Humidity;BMP_temperature;BMP_pressure;BME280_temperature;BME280_humidity;BME280_pressure;Samples;Min_cycle;Max_cycle;Signal;HPM_P1;HPM_P2
2022/07/25 04:13:39;;;;;;;7.57;6.67;;;;;;;18.78;70.75;100531.03;5556460;32;174129;-89
2022/07/25 04:16:42;;;;;;;6.68;6.07;;;;;;;18.78;70.75;100531.03;5543026;32;34197;-89
2022/07/25 04:19:45;;;;;;;7.87;6.60;;;;;;;18.32;72.23;100531.09;5542303;32;33922;-86
2022/07/25 04:22:48;;;;;;;12.35;6.78;;;;;;;18.35;72.48;100527.31;5542107;32;34496;-86
2022/07/25 04:25:50;;;;;;;8.10;6.35;;;;;;;18.47;71.83;100533.53;5534743;32;34003;-86
2022/07/25 04:28:53;;;;;;;8.63;7.03;;;;;;;18.57;71.28;100537.19;5542346;32;33590;-86
2022/07/25 04:31:56;;;;;;;7.18;6.03;;;;;;;18.66;71.02;100535.56;5546266;32;34526;-87
2022/07/25 04:34:59;;;;;;;8.82;6.43;;;;;;;18.75;70.62;100542.03;5541435;32;34776;-86
2022/07/25 04:38:02;;;;;;;9.05;6.87;;;;;;;18.90;69.84;100551.50;5523145;32;34494;-86
2022/07/25 04:41:10;;;;;;;9.25;6.22;;;;;;;18.96;68.93;100544.78;5524778;32;34128;-87
2022/07/25 04:44:13;;;;;;;11.00;5.72;;;;;;;19.04;65.57;100544.16;5524143;32;35041;-90
2022/07/25 04:47:15;;;;;;;12.98;6.68;;;;;;;19.22;64.49;100539.94;5522891;32;34054;-91
2022/07/25 04:50:18;;;;;;;12.15;6.03;;;;;;;19.42;63.44;100539.25;5523861;32;34976;-92
2022/07/25 04:53:26;;;;;;;6.80;6.10;;;;;;;19.60;63.46;100537.69;5523289;32;34073;-88
2022/07/25 04:56:29;;;;;;;9.65;5.80;;;;;;;19.69;63.06;100546.78;5522611;32;34265;-88
2022/07/25 04:59:32;;;;;;;6.30;5.53;;;;;;;19.97;61.01;100533.69;5521923;32;34077;-89
2022/07/25 05:02:35;;;;;;;6.87;5.68;;;;;;;20.11;60.07;100532.44;5523538;32;33764;-86
2022/07/25 05:05:38;;;;;;;7.12;5.90;;;;;;;20.21;58.77;100537.88;5522674;32;32397;-86
2022/07/25 05:08:40;;;;;;;20.58;6.60;;;;;;;20.33;58.68;100535.94;5523323;32;33555;-88
2022/07/25 05:11:43;;;;;;;7.47;5.90;;;;;;;20.60;59.43;100535.31;5522014;32;33813;-88
2022/07/25 05:14:53;;;;;;;9.40;6.00;;;;;;;20.62;58.46;100537.88;5535290;32;33975;-88
2022/07/25 05:17:55;;;;;;;8.13;5.62;;;;;;;20.73;58.21;100535.06;5542026;32;33900;-87
2022/07/25 05:20:58;;;;;;;6.47;5.72;;;;;;;20.99;57.57;100531.87;5541590;32;33733;-88
2022/07/25 05:24:01;;;;;;;9.00;5.90;;;;;;;21.17;56.58;100527.63;5533483;32;34144;-88
2022/07/25 05:27:04;;;;;;;6.35;5.45;;;;;;;21.43;56.03;100529.72;5529084;32;34257;-88
2022/07/25 05:30:09;;;;;;;9.15;5.95;;;;;;;21.70;55.09;100528.13;5527872;32;33194;-88
2022/07/25 05:33:14;;;;;;;8.70;5.80;;;;;;;21.97;52.88;100524.66;5529272;32;34339;-88
2022/07/25 05:36:17;;;;;;;6.18;5.47;;;;;;;22.44;51.80;100522.88;5529167;32;34476;-88
2022/07/25 05:39:20;;;;;;;6.10;5.50;;;;;;;24.65;48.60;100519.47;5529237;32;34579;-88
2022/07/25 05:42:23;;;;;;;6.82;5.10;;;;;;;26.88;41.99;100520.09;5529655;32;34437;-87
2022/07/25 05:45:26;;;;;;;7.65;5.30;;;;;;;28.32;38.57;100517.59;5529668;32;34428;-88
2022/07/25 05:48:30;;;;;;;6.90;5.10;;;;;;;28.27;37.71;100517.31;5529001;32;33316;-87
2022/07/25 05:51:33;;;;;;;15.23;5.28;;;;;;;29.89;35.73;100516.13;5528613;32;32761;-87
2022/07/25 05:54:36;;;;;;;5.82;4.50;;;;;;;30.71;34.13;100514.63;5510457;32;35037;-87
2022/07/25 05:57:38;;;;;;;4.87;4.47;;;;;;;31.31;32.48;100516.62;5510531;32;34271;-86
2022/07/25 06:00:41;;;;;;;7.22;4.30;;;;;;;29.51;34.74;100521.97;5526222;32;34060;-86
2022/07/25 06:03:44;;;;;;;5.62;4.60;;;;;;;29.80;33.85;100512.72;5509826;32;32338;-86
2022/07/25 06:06:51;;;;;;;11.75;5.07;;;;;;;30.81;32.76;100517.81;5514327;32;32461;-87
2022/07/25 06:09:54;;;;;;;7.72;4.45;;;;;;;33.10;29.97;100515.59;5523260;32;34084;-86
2022/07/25 06:12:57;;;;;;;6.07;4.43;;;;;;;32.85;29.29;100516.38;5522982;32;34777;-87
2022/07/25 06:16:00;;;;;;;8.57;4.50;;;;;;;33.45;28.47;100515.09;5510717;32;33406;-85
2022/07/25 06:19:03;;;;;;;4.68;4.28;;;;;;;32.70;27.80;100516.69;5512520;32;33297;-86
2022/07/25 06:22:08;;;;;;;5.43;4.10;;;;;;;31.63;30.47;100521.44;5532213;32;33575;-87
2022/07/25 06:25:11;;;;;;;7.07;4.28;;;;;;;31.78;31.70;100516.56;5533669;32;32739;-87
2022/07/25 06:28:14;;;;;;;4.75;4.18;;;;;;;33.66;27.00;100508.34;5531867;32;34910;-87
2022/07/25 06:31:19;;;;;;;4.45;4.03;;;;;;;34.94;24.65;100512.25;5524812;32;33959;-87
2022/07/25 06:34:22;;;;;;;4.62;4.22;;;;;;;35.80;22.97;100506.59;5514156;32;32669;-87
2022/07/25 06:37:30;;;;;;;5.37;3.95;;;;;;;36.16;22.67;100504.63;5517554;32;35346;-87
2022/07/25 06:40:32;;;;;;;5.22;4.30;;;;;;;34.61;24.59;100497.09;5518781;32;33964;-87
2022/07/25 06:43:35;;;;;;;4.62;4.07;;;;;;;33.39;26.34;100502.25;5526632;32;34730;-87
2022/07/25 06:46:38;;;;;;;5.95;4.60;;;;;;;31.12;30.42;100504.59;5515736;32;33576;-87
2022/07/25 06:49:41;;;;;;;5.57;4.00;;;;;;;30.16;31.21;100494.41;5518212;32;34522;-86
2022/07/25 06:52:45;;;;;;;6.47;4.40;;;;;;;29.15;32.35;100490.97;5520811;32;33981;-90
2022/07/25 06:55:47;;;;;;;8.82;5.03;;;;;;;28.35;33.80;100489.06;5520224;32;35316;-90
2022/07/25 06:58:52;;;;;;;5.87;4.80;;;;;;;27.85;34.10;100497.84;5511244;32;34121;-89
2022/07/25 07:01:54;;;;;;;7.32;4.68;;;;;;;28.10;34.59;100484.75;5509812;32;34089;-87
2022/07/25 07:04:57;;;;;;;5.62;4.80;;;;;;;28.70;33.17;100493.88;5509142;32;34119;-86
2022/07/25 07:08:00;;;;;;;6.45;4.55;;;;;;;28.55;32.94;100480.28;5517170;32;32419;-86
2022/07/25 07:11:04;;;;;;;5.30;4.40;;;;;;;28.85;33.09;100481.00;5509164;32;34856;-86
2022/07/25 07:14:07;;;;;;;4.72;4.28;;;;;;;29.13;32.65;100479.41;5511698;32;33711;-86
2022/07/25 07:17:11;;;;;;;7.62;4.75;;;;;;;29.70;31.84;100468.47;5522308;32;34143;-86
2022/07/25 07:20:13;;;;;;;6.40;4.75;;;;;;;29.89;31.63;100471.53;5526585;32;34221;-87
2022/07/25 07:23:17;;;;;;;5.50;4.78;;;;;;;29.60;31.88;100479.78;5517114;32;34245;-87
2022/07/25 07:26:21;;;;;;;5.75;4.50;;;;;;;29.98;31.84;100479.34;5517846;32;33781;-87
2022/07/25 07:29:23;;;;;;;8.68;4.93;;;;;;;30.04;32.94;100464.03;5513494;32;32701;-88
2022/07/25 07:32:26;;;;;;;4.90;4.50;;;;;;;30.36;31.72;100475.34;5510473;32;33673;-87
2022/07/25 07:35:29;;;;;;;5.62;4.50;;;;;;;30.21;31.20;100469.22;5509104;32;32685;-87
2022/07/25 07:38:38;;;;;;;6.55;4.80;;;;;;;30.18;30.87;100472.34;5509824;32;32431;-86
2022/07/25 07:41:41;;;;;;;6.03;4.07;;;;;;;30.66;30.97;100469.53;5513476;32;32374;-86
2022/07/25 07:44:44;;;;;;;6.20;4.65;;;;;;;31.10;29.92;100473.81;5511223;32;33941;-85
2022/07/25 07:47:48;;;;;;;5.60;5.10;;;;;;;31.02;29.92;100472.13;5510258;32;32656;-86
2022/07/25 07:50:52;;;;;;;10.38;5.12;;;;;;;30.71;29.58;100463.44;5512029;32;33807;-86
2022/07/25 07:57:16;;;;;;;6.60;4.55;;;;;;;31.33;29.43;100468.75;5510930;32;34809;-87
2022/07/25 08:00:20;;;;;;;5.03;4.62;;;;;;;31.74;28.84;100464.03;5508137;32;33801;-85
2022/07/25 08:03:22;;;;;;;9.95;5.30;;;;;;;31.24;28.95;100469.16;5508684;32;34171;-86
2022/07/25 08:06:26;;;;;;;4.78;4.30;;;;;;;31.78;27.60;100472.69;5508462;32;35319;-86
2022/07/25 08:09:29;;;;;;;5.80;4.25;;;;;;;31.06;28.78;100471.50;5506865;32;33966;-87
2022/07/25 08:12:32;;;;;;;5.37;4.43;;;;;;;31.22;28.34;100468.53;5507925;32;35196;-86
2022/07/25 08:15:34;;;;;;;6.00;4.53;;;;;;;31.02;28.65;100458.44;5506985;32;32898;-86
2022/07/25 08:18:37;;;;;;;5.18;4.60;;;;;;;31.81;28.40;100455.81;5507752;32;33868;-85
2022/07/25 08:21:44;;;;;;;5.07;4.57;;;;;;;32.22;27.53;100445.53;5509773;32;34586;-85
2022/07/25 08:24:48;;;;;;;4.68;4.28;;;;;;;32.42;26.81;100447.34;5509122;32;34375;-85
2022/07/25 08:27:52;;;;;;;5.78;4.03;;;;;;;33.31;26.74;100452.00;5522584;32;34580;-86
2022/07/25 08:30:55;;;;;;;8.10;4.32;;;;;;;33.39;26.46;100439.03;5533228;32;33652;-86
2022/07/25 08:33:58;;;;;;;8.57;4.68;;;;;;;33.73;25.20;100439.50;5526379;32;33093;-86
2022/07/25 08:37:01;;;;;;;4.95;4.45;;;;;;;33.64;24.64;100435.41;5526644;32;33306;-86
2022/07/25 08:40:04;;;;;;;10.50;4.45;;;;;;;33.74;25.17;100430.22;5526510;32;33845;-86
2022/07/25 08:43:12;;;;;;;5.10;4.10;;;;;;;34.56;24.67;100430.81;5513091;32;34544;-86
2022/07/25 08:46:15;;;;;;;5.12;4.15;;;;;;;34.71;24.66;100437.81;5526895;32;34507;-86
2022/07/25 08:49:18;;;;;;;6.97;4.40;;;;;;;34.58;23.35;100428.69;5526037;32;34323;-89
2022/07/25 08:52:22;;;;;;;4.70;4.20;;;;;;;34.67;24.36;100427.31;5526256;32;34766;-90
2022/07/25 08:55:27;;;;;;;5.53;4.28;;;;;;;35.49;23.21;100421.22;5517804;32;33063;-90
2022/07/25 08:58:30;;;;;;;6.65;4.07;;;;;;;35.75;22.69;100425.41;5522381;32;32676;-87
2022/07/25 09:01:33;;;;;;;5.00;4.28;;;;;;;35.68;22.68;100418.31;5514543;32;33417;-86
2022/07/25 09:04:37;;;;;;;4.57;4.10;;;;;;;35.03;22.44;100423.72;5518135;32;34090;-85
2022/07/25 09:07:40;;;;;;;4.72;4.30;;;;;;;35.42;22.88;100423.25;5519073;32;32908;-87
2022/07/25 09:10:49;;;;;;;5.78;4.57;;;;;;;36.18;22.06;100408.59;5513925;32;33548;-86
2022/07/25 09:14:00;;;;;;;4.97;4.43;;;;;;;36.59;21.12;100407.66;5511306;32;33917;-86
2022/07/25 09:17:05;;;;;;;6.00;4.20;;;;;;;37.07;20.55;100400.72;5510926;32;33676;-86
2022/07/25 09:20:43;;;;;;;4.53;4.05;;;;;;;36.91;20.49;100396.06;5510525;32;32731;-86
2022/07/25 09:23:46;;;;;;;5.65;4.53;;;;;;;37.05;20.77;100400.13;5514863;32;34161;-85
2022/07/25 09:26:52;;;;;;;4.80;4.35;;;;;;;37.05;20.27;100397.34;5511210;32;34309;-85
2022/07/25 09:29:54;;;;;;;6.68;4.40;;;;;;;35.99;21.48;100400.50;5529470;32;35458;-85
2022/07/25 09:33:01;;;;;;;8.15;4.90;;;;;;;36.68;21.36;100395.12;5549468;32;34252;-85
2022/07/25 09:36:10;;;;;;;6.40;4.68;;;;;;;36.80;21.08;100390.34;5525203;32;33173;-85
2022/07/25 09:39:13;;;;;;;4.82;4.37;;;;;;;37.51;20.88;100390.00;5516507;32;34266;-85
2022/07/25 09:42:36;;;;;;;5.12;4.62;;;;;;;37.47;20.11;100395.19;5519005;32;34502;-84
2022/07/25 09:45:48;;;;;;;6.18;4.50;;;;;;;38.20;19.02;100383.06;5537827;32;34020;-86
2022/07/25 09:48:57;;;;;;;7.37;4.65;;;;;;;37.05;20.11;100382.72;5550687;32;33928;-85
2022/07/25 09:52:00;;;;;;;4.95;4.50;;;;;;;37.08;19.89;100383.03;5551365;32;34547;-85
2022/07/25 09:55:05;;;;;;;5.12;4.35;;;;;;;37.88;18.62;100389.34;5547917;32;34585;-89
2022/07/25 09:58:08;;;;;;;4.32;4.05;;;;;;;39.96;17.19;100368.69;5533988;32;32260;-85
2022/07/25 10:01:19;;;;;;;4.60;4.20;;;;;;;40.37;16.38;100365.97;5539584;32;33653;-85
2022/07/25 10:04:36;;;;;;;5.87;3.90;;;;;;;40.45;16.17;100361.81;5532353;32;35376;-85
2022/07/25 10:07:44;;;;;;;4.53;4.12;;;;;;;40.05;17.03;100353.13;5530341;32;34727;-85
2022/07/25 10:10:47;;;;;;;4.70;4.30;;;;;;;40.28;16.85;100348.16;5532921;32;34040;-86
2022/07/25 10:13:52;;;;;;;5.37;4.07;;;;;;;40.18;16.67;100349.00;5529625;32;33742;-86
2022/07/25 10:16:55;;;;;;;5.78;4.62;;;;;;;39.34;17.41;100356.22;5535721;32;34332;-85
2022/07/25 10:20:00;;;;;;;5.22;4.65;;;;;;;39.06;17.59;100347.19;5533011;32;33655;-87
2022/07/25 10:23:03;;;;;;;5.72;4.45;;;;;;;38.58;18.30;100338.84;5542564;32;35261;-86
2022/07/25 10:26:20;;;;;;;7.68;4.32;;;;;;;37.91;18.82;100339.03;5530198;32;34852;-87
2022/07/25 10:29:33;;;;;;;4.78;4.30;;;;;;;38.75;17.62;100335.09;5529883;32;34581;-87
2022/07/25 10:32:35;;;;;;;6.28;4.40;;;;;;;38.31;18.23;100331.41;5515036;32;32796;-87
2022/07/25 10:35:39;;;;;;;4.93;4.53;;;;;;;40.28;16.22;100335.09;5529161;32;33614;-87
2022/07/25 10:38:44;;;;;;;6.87;4.32;;;;;;;40.98;15.48;100318.94;5517945;32;34229;-86
2022/07/25 10:41:52;;;;;;;5.95;4.15;;;;;;;42.22;14.39;100325.81;5548157;32;34643;-87
2022/07/25 10:44:58;;;;;;;7.53;4.82;;;;;;;41.83;14.32;100315.50;5545109;32;34242;-87
2022/07/25 10:48:06;;;;;;;4.95;4.53;;;;;;;39.30;16.59;100312.66;5533459;32;33089;-87
2022/07/25 10:51:11;;;;;;;8.38;4.80;;;;;;;37.88;17.91;100295.25;5532397;32;33375;-86
2022/07/25 10:54:17;;;;;;;4.65;4.25;;;;;;;36.74;19.49;100299.38;5534446;32;32738;-86
2022/07/25 10:57:20;;;;;;;4.87;4.40;;;;;;;37.19;19.24;100290.06;5534084;32;32459;-86
2022/07/25 11:00:24;;;;;;;4.45;4.10;;;;;;;37.18;18.98;100291.16;5531467;32;33976;-86
2022/07/25 11:03:32;;;;;;;5.03;4.50;;;;;;;36.46;20.40;100290.06;5529202;32;34119;-86
2022/07/25 11:06:40;;;;;;;4.70;4.40;;;;;;;36.51;19.58;100285.44;5535790;32;33897;-86
2022/07/25 11:09:54;;;;;;;;;;;;;;;36.46;19.68;100281.78;5516303;32;32344;-85
2022/07/25 11:12:57;;;;;;;5.00;4.50;;;;;;;36.55;20.04;100277.50;5542945;32;33939;-90
2022/07/25 11:16:00;;;;;;;5.72;4.15;;;;;;;38.49;18.09;100271.13;5517600;32;34026;-86
2022/07/25 11:19:02;;;;;;;8.10;4.43;;;;;;;38.88;17.17;100270.84;5540114;32;34681;-87
2022/07/25 11:22:07;;;;;;;5.20;4.40;;;;;;;37.97;18.46;100260.47;5545104;32;33756;-86
2022/07/25 11:25:13;;;;;;;4.80;4.30;;;;;;;35.91;19.74;100259.31;5546981;32;33627;-87
2022/07/25 11:28:15;;;;;;;6.07;4.68;;;;;;;36.81;19.11;100253.87;5543009;32;34756;-86
2022/07/25 11:31:24;;;;;;;6.70;4.62;;;;;;;35.68;20.16;100250.06;5530730;32;33023;-86
2022/07/25 11:34:30;;;;;;;4.68;4.30;;;;;;;34.91;20.46;100245.50;5567400;32;34044;-86
2022/07/25 11:37:38;;;;;;;6.15;4.40;;;;;;;34.81;21.56;100239.75;5530671;32;34201;-87
2022/07/25 11:40:43;;;;;;;4.90;4.60;;;;;;;35.38;20.91;100240.13;5532660;32;35103;-86
2022/07/25 11:43:49;;;;;;;5.30;4.35;;;;;;;35.15;20.32;100231.66;5534360;32;33584;-87
2022/07/25 11:46:51;;;;;;;6.00;4.53;;;;;;;34.77;20.23;100231.13;5537586;32;32884;-86
2022/07/25 11:49:57;;;;;;;5.85;4.18;;;;;;;35.35;20.71;100222.97;5564715;32;34035;-87
2022/07/25 11:53:06;;;;;;;7.57;4.65;;;;;;;34.95;20.38;100224.63;5532980;32;33329;-85
2022/07/25 11:56:22;;;;;;;5.45;4.35;;;;;;;34.46;20.86;100213.91;5542413;32;34805;-87
2022/07/25 11:59:45;;;;;;;10.80;4.32;;;;;;;34.00;20.80;100214.41;5540670;32;33718;-86
2022/07/25 12:02:50;;;;;;;5.30;4.80;;;;;;;33.86;23.16;100216.56;5523553;32;33203;-87
2022/07/25 12:05:53;;;;;;;6.40;4.20;;;;;;;33.72;21.29;100210.44;5546720;32;34421;-86
2022/07/25 12:08:56;;;;;;;8.80;4.40;;;;;;;34.20;22.66;100206.94;5549899;32;33813;-86
2022/07/25 12:12:03;;;;;;;4.43;4.00;;;;;;;34.59;20.75;100196.31;5545859;32;34243;-86
2022/07/25 12:15:06;;;;;;;6.72;4.03;;;;;;;34.48;20.71;100199.91;5544534;32;33562;-85
2022/07/25 12:18:11;;;;;;;4.65;4.25;;;;;;;34.30;19.69;100196.19;5539487;32;34228;-86
2022/07/25 12:21:13;;;;;;;4.45;4.00;;;;;;;34.54;21.18;100187.91;5516138;32;32783;-86
2022/07/25 12:24:17;;;;;;;3.97;3.67;;;;;;;33.52;19.81;100179.66;5525396;32;33852;-85
2022/07/25 12:27:19;;;;;;;6.00;3.83;;;;;;;33.41;19.09;100175.75;5541369;32;33974;-85
2022/07/25 12:30:22;;;;;;;5.20;3.78;;;;;;;33.65;19.23;100171.19;5539210;32;34784;-85
2022/07/25 12:33:25;;;;;;;6.12;3.87;;;;;;;33.58;19.22;100175.97;5545725;32;33727;-85
2022/07/25 12:36:27;;;;;;;4.65;3.95;;;;;;;33.14;19.33;100154.12;5534873;32;34824;-90
2022/07/25 12:39:30;;;;;;;4.60;4.20;;;;;;;32.73;19.64;100154.59;5523662;32;32613;-91
2022/07/25 12:42:34;;;;;;;4.40;4.00;;;;;;;32.98;20.14;100150.13;5551453;32;34739;-92
2022/07/25 12:45:36;;;;;;;4.20;3.80;;;;;;;33.40;20.19;100149.34;5538704;32;33625;-90
2022/07/25 12:48:39;;;;;;;5.22;4.10;;;;;;;33.72;18.68;100154.56;5515939;32;33365;-87
2022/07/25 12:51:42;;;;;;;10.13;4.03;;;;;;;32.90;20.91;100145.75;5531236;32;34235;-86
2022/07/25 12:54:45;;;;;;;5.18;3.80;;;;;;;33.26;20.90;100140.44;5554519;32;33817;-87
2022/07/25 12:57:49;;;;;;;5.80;4.12;;;;;;;33.57;20.81;100135.78;5555123;32;34287;-87
2022/07/25 13:00:52;;;;;;;4.85;4.20;;;;;;;33.58;20.25;100130.06;5534906;32;32693;-87
2022/07/25 13:04:00;;;;;;;4.27;3.87;;;;;;;32.50;20.48;100117.72;5530335;32;34438;-87
2022/07/25 13:07:04;;;;;;;4.32;3.95;;;;;;;32.39;21.31;100112.97;5530248;32;34349;-87
2022/07/25 13:10:07;;;;;;;7.85;3.90;;;;;;;32.68;21.65;100110.56;5516703;32;34038;-87
2022/07/25 13:13:10;;;;;;;4.20;3.87;;;;;;;32.67;21.75;100106.97;5551155;32;35026;-87
2022/07/25 13:16:13;;;;;;;5.55;3.80;;;;;;;32.73;21.52;100107.09;5548941;32;35337;-86
2022/07/25 13:19:16;;;;;;;5.37;4.05;;;;;;;32.53;22.58;100103.53;5549790;32;34534;-87
2022/07/25 13:22:18;;;;;;;4.47;3.70;;;;;;;32.75;21.72;100091.22;5535226;32;33502;-88
2022/07/25 13:25:21;;;;;;;4.22;3.83;;;;;;;33.06;21.01;100098.44;5549346;32;33837;-89
2022/07/25 13:28:24;;;;;;;6.45;3.92;;;;;;;33.01;21.10;100090.06;5549516;32;34302;-88
2022/07/25 13:31:27;;;;;;;10.48;4.22;;;;;;;33.01;21.11;100081.81;5548753;32;34176;-88
2022/07/25 13:34:30;;;;;;;4.40;3.60;;;;;;;32.85;20.71;100086.03;5548639;32;34451;-89
2022/07/25 13:37:32;;;;;;;4.10;3.70;;;;;;;32.76;21.04;100077.28;5550475;32;33880;-88
2022/07/25 13:40:40;;;;;;;8.10;3.90;;;;;;;32.55;20.74;100070.38;5550462;32;34285;-88
2022/07/25 13:43:43;;;;;;;5.43;3.70;;;;;;;32.61;20.59;100065.84;5543472;32;32376;-89
2022/07/25 13:46:48;;;;;;;5.62;3.75;;;;;;;32.54;21.08;100057.72;5547880;32;32379;-88
2022/07/25 13:49:52;;;;;;;5.45;3.80;;;;;;;32.96;21.28;100065.22;5554593;32;34287;-88
2022/07/25 13:52:56;;;;;;;4.93;3.70;;;;;;;33.02;20.04;100052.44;5534776;32;32808;-88
2022/07/25 13:55:59;;;;;;;6.50;3.60;;;;;;;32.70;20.52;100053.50;5534167;32;34222;-88
2022/07/25 13:59:03;;;;;;;6.07;3.70;;;;;;;32.52;20.18;100043.34;5535562;32;32587;-88
2022/07/25 14:02:11;;;;;;;;;;;;;;;32.73;20.78;100044.78;5541114;32;33949;-88
2022/07/25 14:05:14;;;;;;;4.72;3.78;;;;;;;32.42;21.55;100032.09;5550511;32;34731;-88
2022/07/25 14:08:17;;;;;;;4.18;3.87;;;;;;;32.54;21.57;100041.25;5540427;32;33185;-88
2022/07/25 14:11:20;;;;;;;7.65;3.72;;;;;;;32.71;21.10;100029.59;5568043;31;34866;-88
2022/07/25 14:14:26;;;;;;;8.88;4.12;;;;;;;32.85;20.99;100027.50;5567632;32;34183;-88
2022/07/25 14:17:29;;;;;;;7.00;4.20;;;;;;;32.67;20.90;100016.34;5568138;32;33814;-88
2022/07/25 14:20:32;;;;;;;6.07;3.78;;;;;;;32.86;20.74;100010.81;5554522;32;32681;-88
2022/07/25 14:23:35;;;;;;;3.90;3.60;;;;;;;32.59;21.52;100005.72;5570215;32;34021;-88
2022/07/25 14:26:37;;;;;;;5.80;4.00;;;;;;;32.63;21.13;100006.06;5580156;32;35311;-87
2022/07/25 14:29:41;;;;;;;4.50;3.87;;;;;;;32.41;21.49;100003.81;5567990;32;33240;-89
2022/07/25 14:32:43;;;;;;;7.37;4.07;;;;;;;32.60;20.87;100001.88;5554905;32;32264;-88
2022/07/25 14:35:46;;;;;;;5.35;3.83;;;;;;;32.67;20.83;99996.28;5567908;32;35023;-88
2022/07/25 14:38:49;;;;;;;4.30;3.85;;;;;;;33.00;21.17;99995.00;5553380;32;32861;-88
2022/07/25 14:41:51;;;;;;;6.90;4.20;;;;;;;33.06;20.62;99994.06;5553955;32;32732;-88
2022/07/25 14:44:54;;;;;;;4.40;4.00;;;;;;;33.04;20.62;99987.94;5567920;32;35154;-88
2022/07/25 14:47:58;;;;;;;5.68;3.85;;;;;;;32.87;20.50;99986.94;5567919;32;34759;-87
2022/07/25 14:51:00;;;;;;;4.97;3.90;;;;;;;32.62;20.75;99982.44;5553679;32;33785;-91
2022/07/25 14:54:03;;;;;;;6.00;3.97;;;;;;;32.62;21.49;99975.03;5553801;32;32914;-92
2022/07/25 14:57:09;;;;;;;8.02;4.37;;;;;;;32.83;21.02;99970.06;5567236;32;34183;-88
2022/07/25 15:00:12;;;;;;;8.05;4.00;;;;;;;32.63;21.03;99965.72;5553063;32;32422;-88
2022/07/25 15:03:15;;;;;;;4.53;3.72;;;;;;;32.39;21.83;99962.84;5553350;32;32550;-88
2022/07/25 15:06:18;;;;;;;5.55;3.87;;;;;;;32.69;21.46;99954.87;5567892;32;35070;-88
2022/07/25 15:09:23;;;;;;;4.03;3.72;;;;;;;32.29;21.27;99950.75;5553893;32;32762;-88
2022/07/25 15:12:26;;;;;;;4.37;3.97;;;;;;;32.41;21.44;99948.94;5553207;32;32430;-88
2022/07/25 15:15:29;;;;;;;4.22;3.83;;;;;;;32.59;20.76;99936.22;5553367;32;32328;-88
2022/07/25 15:18:32;;;;;;;5.18;3.87;;;;;;;32.20;21.43;99940.09;5568276;32;34267;-88
2022/07/25 15:21:53;;;;;;;4.87;3.85;;;;;;;32.13;21.93;99939.34;5568685;32;33811;-88
